createdAt,value
2019-05-26T00:00:01.415Z,6.37
2019-05-26T00:02:28.641Z,10.23
2019-05-26T00:04:55.368Z,8.97
2019-05-26T00:07:30.585Z,6.37
2019-05-26T00:09:51.303Z,7.50
2019-05-26T00:12:17.985Z,5.87
2019-05-26T00:14:44.705Z,12.83
2019-05-26T00:17:11.854Z,9.87
2019-05-26T00:19:38.795Z,5.90
2019-05-26T00:22:06.141Z,8.20
2019-05-26T00:24:32.872Z,6.10
2019-05-26T00:26:59.577Z,6.97
2019-05-26T00:29:26.293Z,7.33
2019-05-26T00:31:52.978Z,8.00
2019-05-26T00:34:19.669Z,6.40
2019-05-26T00:36:46.889Z,9.17
2019-05-26T00:39:13.572Z,6.43
2019-05-26T00:41:40.313Z,6.63
2019-05-26T00:44:07.321Z,7.87
2019-05-26T00:46:34.116Z,11.20
2019-05-26T00:49:01.041Z,9.00
2019-05-26T00:51:27.740Z,6.77
2019-05-26T00:53:54.891Z,9.50
2019-05-26T00:56:21.802Z,7.80
2019-05-26T00:58:48.488Z,11.00
2019-05-26T01:01:15.280Z,6.70
2019-05-26T01:03:41.975Z,6.73
2019-05-26T01:06:08.676Z,6.40
2019-05-26T01:08:35.418Z,10.57
2019-05-26T01:11:02.359Z,7.10
2019-05-26T01:13:29.366Z,8.90
2019-05-26T01:15:56.552Z,7.33
2019-05-26T01:18:23.243Z,7.80
2019-05-26T01:20:49.927Z,9.80
2019-05-26T01:23:16.619Z,9.23
2019-05-26T01:25:43.724Z,10.13
2019-05-26T01:28:10.506Z,11.43
2019-05-26T01:30:38.208Z,6.47
2019-05-26T01:33:05.757Z,9.57
2019-05-26T01:35:33.375Z,8.03
2019-05-26T01:38:00.560Z,9.23
2019-05-26T01:40:46.920Z,7.80
2019-05-26T01:43:14.097Z,8.37
2019-05-26T01:45:41.001Z,8.00
2019-05-26T01:48:08.401Z,8.07
2019-05-26T01:50:35.380Z,7.87
2019-05-26T01:53:02.198Z,8.00
2019-05-26T01:55:28.884Z,6.67
2019-05-26T01:57:55.583Z,7.37
2019-05-26T02:00:22.696Z,10.23
2019-05-26T02:02:49.661Z,10.33
2019-05-26T02:05:16.496Z,8.40
2019-05-26T02:07:43.180Z,9.17
2019-05-26T02:10:10.390Z,7.63
2019-05-26T02:12:37.073Z,5.97
2019-05-26T02:15:04.216Z,7.23
2019-05-26T02:17:30.916Z,8.73
2019-05-26T02:19:57.621Z,7.00
2019-05-26T02:22:24.312Z,6.07
2019-05-26T02:24:51.254Z,9.47
2019-05-26T02:27:17.965Z,9.43
2019-05-26T02:29:44.679Z,10.40
2019-05-26T02:32:11.671Z,10.00
2019-05-26T02:34:38.582Z,7.17
2019-05-26T02:37:05.399Z,6.77
2019-05-26T02:39:32.076Z,8.00
2019-05-26T02:41:59.069Z,8.73
2019-05-26T02:44:25.746Z,9.50
2019-05-26T02:46:52.525Z,9.93
2019-05-26T02:49:19.483Z,7.33
2019-05-26T02:51:46.188Z,8.20
2019-05-26T02:54:13.164Z,12.10
2019-05-26T02:56:39.964Z,9.57
2019-05-26T02:59:07.061Z,9.37
2019-05-26T03:01:34.308Z,11.63
2019-05-26T03:04:01.114Z,9.27
2019-05-26T03:06:28.627Z,8.73
2019-05-26T03:08:57.182Z,12.43
2019-05-26T03:11:26.379Z,8.13
2019-05-26T03:13:55.696Z,8.90
2019-05-26T03:16:22.513Z,9.77
2019-05-26T03:18:51.050Z,8.60
2019-05-26T03:21:19.529Z,10.03
2019-05-26T03:23:48.467Z,7.13
2019-05-26T03:26:18.184Z,8.33
2019-05-26T03:28:44.889Z,8.13
2019-05-26T03:31:11.576Z,7.83
2019-05-26T03:33:38.279Z,6.93
2019-05-26T03:36:05.276Z,7.47
2019-05-26T03:38:31.952Z,11.10
2019-05-26T03:40:58.688Z,12.47
2019-05-26T03:43:25.703Z,10.07
2019-05-26T03:46:16.307Z,8.03
2019-05-26T03:48:43.215Z,12.07
2019-05-26T03:51:10.441Z,6.50
2019-05-26T03:53:37.479Z,8.40
2019-05-26T03:56:04.208Z,6.53
2019-05-26T03:58:30.911Z,5.17
2019-05-26T04:00:57.577Z,12.00
2019-05-26T04:03:24.512Z,10.47
2019-05-26T04:05:51.210Z,9.00
2019-05-26T04:08:17.893Z,14.13
2019-05-26T04:10:44.622Z,8.07
2019-05-26T04:13:11.330Z,8.67
2019-05-26T04:15:37.995Z,6.97
2019-05-26T04:18:04.807Z,9.57
2019-05-26T04:20:31.994Z,9.50
2019-05-26T04:22:58.716Z,11.20
2019-05-26T04:25:25.412Z,7.60
2019-05-26T04:27:52.126Z,6.83
2019-05-26T04:30:19.293Z,7.37
2019-05-26T04:32:45.995Z,7.70
2019-05-26T04:35:12.996Z,7.47
2019-05-26T04:37:40.041Z,7.20
2019-05-26T04:40:25.087Z,6.87
2019-05-26T04:42:35.663Z,8.10
2019-05-26T04:45:02.708Z,8.00
2019-05-26T04:47:29.421Z,6.70
2019-05-26T04:49:56.136Z,10.53
2019-05-26T04:52:23.140Z,10.47
2019-05-26T04:54:49.821Z,7.50
2019-05-26T04:57:16.807Z,7.43
2019-05-26T04:59:43.519Z,5.97
2019-05-26T05:02:10.187Z,7.33
2019-05-26T05:04:36.907Z,4.40
2019-05-26T05:07:03.789Z,7.97
2019-05-26T05:09:30.786Z,7.67
2019-05-26T05:11:57.485Z,6.45
2019-05-26T05:14:24.710Z,7.42
2019-05-26T05:16:51.400Z,8.43
2019-05-26T05:19:18.403Z,5.95
2019-05-26T05:21:45.120Z,6.15
2019-05-26T05:24:11.807Z,4.22
2019-05-26T05:26:38.830Z,6.95
2019-05-26T05:29:05.571Z,5.75
2019-05-26T05:31:32.272Z,6.42
2019-05-26T05:33:59.365Z,6.33
2019-05-26T05:36:26.316Z,4.92
2019-05-26T05:38:53.032Z,4.78
2019-05-26T05:41:19.740Z,5.70
2019-05-26T05:43:46.844Z,11.15
2019-05-26T05:46:14.092Z,7.90
2019-05-26T05:48:40.804Z,8.03
2019-05-26T05:51:07.544Z,7.72
2019-05-26T05:53:34.597Z,7.05
2019-05-26T05:56:01.446Z,9.15
2019-05-26T05:58:28.119Z,11.60
2019-05-26T06:00:54.831Z,5.50
2019-05-26T06:03:21.607Z,8.28
2019-05-26T06:05:48.342Z,9.48
2019-05-26T06:08:15.148Z,8.25
2019-05-26T06:10:41.928Z,6.37
2019-05-26T06:13:08.916Z,5.80
2019-05-26T06:15:35.636Z,7.70
2019-05-26T06:18:02.515Z,10.60
2019-05-26T06:20:29.411Z,12.33
2019-05-26T06:22:56.093Z,11.08
2019-05-26T06:25:22.770Z,9.15
2019-05-26T06:27:49.929Z,9.80
2019-05-26T06:30:17.882Z,6.53
2019-05-26T06:32:44.880Z,8.88
2019-05-26T06:35:12.497Z,6.95
2019-05-26T06:37:39.205Z,9.85
2019-05-26T06:40:06.838Z,6.97
2019-05-26T06:42:33.645Z,6.67
2019-05-26T06:45:00.300Z,8.10
2019-05-26T06:47:27.034Z,9.63
2019-05-26T06:49:53.713Z,7.53
2019-05-26T06:52:20.629Z,7.50
2019-05-26T06:54:47.335Z,9.95
2019-05-26T06:57:15.407Z,5.37
2019-05-26T06:59:42.111Z,6.72
2019-05-26T07:02:08.890Z,8.60
2019-05-26T07:04:35.846Z,9.00
2019-05-26T07:07:02.991Z,7.30
2019-05-26T07:09:29.768Z,10.10
2019-05-26T07:12:00.116Z,6.87
2019-05-26T07:14:25.156Z,6.42
2019-05-26T07:16:51.873Z,4.67
2019-05-26T07:19:18.575Z,7.75
2019-05-26T07:21:45.809Z,8.75
2019-05-26T07:24:12.743Z,11.60
2019-05-26T07:26:39.415Z,5.25
2019-05-26T07:29:06.103Z,7.67
2019-05-26T07:31:33.153Z,5.45
2019-05-26T07:33:59.847Z,7.10
2019-05-26T07:36:26.554Z,7.05
2019-05-26T07:38:53.572Z,4.80
2019-05-26T07:41:20.510Z,5.67
2019-05-26T07:43:47.712Z,7.55
2019-05-26T07:46:14.808Z,4.30
2019-05-26T07:48:41.521Z,4.37
2019-05-26T07:51:08.206Z,5.40
2019-05-26T07:53:35.177Z,7.17
2019-05-26T07:56:01.860Z,6.03
2019-05-26T07:58:28.729Z,4.15
2019-05-26T08:00:55.432Z,9.90
2019-05-26T08:03:22.723Z,4.35
2019-05-26T08:05:49.655Z,6.15
2019-05-26T08:08:16.351Z,5.33
2019-05-26T08:10:43.155Z,4.58
2019-05-26T08:13:10.091Z,3.83
2019-05-26T08:15:36.761Z,4.97
2019-05-26T08:18:03.744Z,5.87
2019-05-26T08:20:30.443Z,6.75
2019-05-26T08:22:57.161Z,6.47
2019-05-26T08:25:23.859Z,4.10
2019-05-26T08:27:50.551Z,4.97
2019-05-26T08:30:17.484Z,6.58
2019-05-26T08:32:44.475Z,5.50
2019-05-26T08:35:11.582Z,4.42
2019-05-26T08:37:38.672Z,3.55
2019-05-26T08:40:17.643Z,3.40
2019-05-26T08:42:45.769Z,8.95
2019-05-26T08:45:12.776Z,5.70
2019-05-26T08:47:39.519Z,3.80
2019-05-26T08:50:06.535Z,3.27
2019-05-26T08:52:33.356Z,4.85
2019-05-26T08:55:00.086Z,3.67
2019-05-26T08:57:26.788Z,6.10
2019-05-26T08:59:53.512Z,5.97
2019-05-26T09:02:20.525Z,3.65
2019-05-26T09:04:47.592Z,5.03
2019-05-26T09:07:14.299Z,5.17
2019-05-26T09:09:41.444Z,3.75
2019-05-26T09:12:08.148Z,4.37
2019-05-26T09:14:34.850Z,5.08
2019-05-26T09:17:01.859Z,3.50
2019-05-26T09:19:28.833Z,4.58
2019-05-26T09:21:55.775Z,3.22
2019-05-26T09:24:22.626Z,3.60
2019-05-26T09:26:49.347Z,4.40
2019-05-26T09:29:16.025Z,3.35
2019-05-26T09:31:42.763Z,3.60
2019-05-26T09:34:09.577Z,7.45
2019-05-26T09:36:36.375Z,5.62
2019-05-26T09:39:05.462Z,5.10
2019-05-26T09:41:32.190Z,7.08
2019-05-26T09:43:58.951Z,4.67
2019-05-26T09:46:25.643Z,5.15
2019-05-26T09:48:52.357Z,7.67
2019-05-26T09:51:19.072Z,5.67
2019-05-26T09:53:59.069Z,6.28
2019-05-26T09:56:14.474Z,6.50
2019-05-26T09:58:41.201Z,4.97
2019-05-26T10:01:08.008Z,8.50
2019-05-26T10:03:34.989Z,4.75
2019-05-26T10:06:02.206Z,6.60
2019-05-26T10:08:29.241Z,5.10
2019-05-26T10:10:55.942Z,7.15
2019-05-26T10:13:31.449Z,5.05
2019-05-26T10:15:51.564Z,6.40
2019-05-26T10:18:18.411Z,5.50
2019-05-26T10:20:45.095Z,7.60
2019-05-26T10:23:12.086Z,5.30
2019-05-26T10:25:39.003Z,8.05
2019-05-26T10:28:05.804Z,5.17
2019-05-26T10:30:52.505Z,5.85
2019-05-26T10:33:19.264Z,4.72
2019-05-26T10:35:46.234Z,6.03
2019-05-26T10:38:12.924Z,7.03
2019-05-26T10:40:40.162Z,5.03
2019-05-26T10:43:07.352Z,5.30
2019-05-26T10:45:34.564Z,5.55
2019-05-26T10:48:01.390Z,4.40
2019-05-26T10:50:28.118Z,9.55
2019-05-26T10:52:54.985Z,8.20
2019-05-26T10:55:21.693Z,4.00
2019-05-26T10:57:48.588Z,6.22
2019-05-26T11:00:16.095Z,5.05
2019-05-26T11:02:42.832Z,3.95
2019-05-26T11:05:09.826Z,4.58
2019-05-26T11:07:36.891Z,2.85
2019-05-26T11:10:04.365Z,4.15
2019-05-26T11:12:31.139Z,3.30
2019-05-26T11:14:57.821Z,2.65
2019-05-26T11:17:24.541Z,3.60
2019-05-26T11:19:51.547Z,2.80
2019-05-26T11:22:18.249Z,3.37
2019-05-26T11:24:45.031Z,2.27
2019-05-26T11:27:13.400Z,2.10
2019-05-26T11:29:40.618Z,5.25
2019-05-26T11:32:07.292Z,2.60
2019-05-26T11:34:34.116Z,2.27
2019-05-26T11:37:00.837Z,3.72
2019-05-26T11:39:27.632Z,3.40
2019-05-26T11:41:55.208Z,1.90
2019-05-26T11:44:22.139Z,3.87
2019-05-26T11:46:49.135Z,4.40
2019-05-26T11:49:15.870Z,1.98
2019-05-26T11:51:42.576Z,1.90
2019-05-26T11:54:09.578Z,1.75
2019-05-26T11:56:36.303Z,1.70
2019-05-26T11:59:03.311Z,1.87
2019-05-26T12:01:30.304Z,1.52
2019-05-26T12:03:57.055Z,1.87
2019-05-26T12:06:24.039Z,1.60
2019-05-26T12:08:50.748Z,1.85
2019-05-26T12:11:17.552Z,1.85
2019-05-26T12:13:44.272Z,2.65
2019-05-26T12:16:10.980Z,2.75
2019-05-26T12:18:37.679Z,1.60
2019-05-26T12:21:04.398Z,2.12
2019-05-26T12:23:31.355Z,5.42
2019-05-26T12:25:58.434Z,3.45
2019-05-26T12:28:25.376Z,3.77
2019-05-26T12:30:52.088Z,3.20
2019-05-26T12:33:19.075Z,4.60
2019-05-26T12:35:46.016Z,1.72
2019-05-26T12:38:13.319Z,2.15
2019-05-26T12:40:40.330Z,1.40
2019-05-26T12:43:07.567Z,5.53
2019-05-26T12:45:34.674Z,2.58
2019-05-26T12:48:01.371Z,2.37
2019-05-26T12:50:28.199Z,3.52
2019-05-26T12:52:54.991Z,1.25
2019-05-26T12:55:21.984Z,2.50
2019-05-26T12:57:48.791Z,1.47
2019-05-26T13:00:17.503Z,2.08
2019-05-26T13:02:44.501Z,3.52
2019-05-26T13:05:11.540Z,0.95
2019-05-26T13:07:38.640Z,1.20
2019-05-26T13:10:05.912Z,4.55
2019-05-26T13:12:32.607Z,2.67
2019-05-26T13:15:05.957Z,1.10
2019-05-26T13:17:27.925Z,5.50
2019-05-26T13:19:54.606Z,1.00
2019-05-26T13:22:21.319Z,1.00
2019-05-26T13:24:48.067Z,1.27
2019-05-26T13:27:14.872Z,1.77
2019-05-26T13:29:41.803Z,1.50
2019-05-26T13:32:08.926Z,1.95
2019-05-26T13:34:36.026Z,2.12
2019-05-26T13:37:03.327Z,5.67
2019-05-26T13:39:30.355Z,4.17
2019-05-26T13:41:57.287Z,3.52
2019-05-26T13:44:23.959Z,3.75
2019-05-26T13:46:50.888Z,2.85
2019-05-26T13:49:17.599Z,1.27
2019-05-26T13:51:44.424Z,1.15
2019-05-26T13:54:11.463Z,1.72
2019-05-26T13:56:38.354Z,5.62
2019-05-26T13:59:05.338Z,2.05
2019-05-26T14:01:32.155Z,1.60
2019-05-26T14:03:58.860Z,1.57
2019-05-26T14:06:25.807Z,1.47
2019-05-26T14:08:52.740Z,1.50
2019-05-26T14:11:19.487Z,2.25
2019-05-26T14:13:46.292Z,1.45
2019-05-26T14:16:13.756Z,2.08
2019-05-26T14:18:41.588Z,2.10
2019-05-26T14:21:08.312Z,1.40
2019-05-26T14:23:35.023Z,1.62
2019-05-26T14:26:01.902Z,5.90
2019-05-26T14:28:28.678Z,1.25
2019-05-26T14:30:55.395Z,5.40
2019-05-26T14:33:22.067Z,1.75
2019-05-26T14:35:49.059Z,1.67
2019-05-26T14:38:15.736Z,1.75
2019-05-26T14:40:42.907Z,1.85
2019-05-26T14:43:09.590Z,1.30
2019-05-26T14:45:36.267Z,5.15
2019-05-26T14:48:03.733Z,3.05
2019-05-26T14:50:30.704Z,1.85
2019-05-26T14:52:57.416Z,1.60
2019-05-26T14:55:24.200Z,1.90
2019-05-26T14:57:51.542Z,1.37
2019-05-26T15:00:22.050Z,1.80
2019-05-26T15:02:49.196Z,1.65
2019-05-26T15:05:16.342Z,1.50
2019-05-26T15:07:43.132Z,1.87
2019-05-26T15:10:10.720Z,1.60
2019-05-26T15:12:37.527Z,2.40
2019-05-26T15:15:04.615Z,1.77
2019-05-26T15:17:31.711Z,2.30
2019-05-26T15:19:58.424Z,1.80
2019-05-26T15:22:25.152Z,2.40
2019-05-26T15:24:51.967Z,2.15
2019-05-26T15:27:18.766Z,1.80
2019-05-26T15:29:45.490Z,1.95
2019-05-26T15:32:12.187Z,3.65
2019-05-26T15:34:39.219Z,2.12
2019-05-26T15:37:06.357Z,1.82
2019-05-26T15:39:33.066Z,1.80
2019-05-26T15:41:59.759Z,3.17
2019-05-26T15:44:26.478Z,2.60
2019-05-26T15:46:53.196Z,3.42
2019-05-26T15:49:19.866Z,5.75
2019-05-26T15:51:46.635Z,2.52
2019-05-26T15:54:13.778Z,2.22
2019-05-26T15:56:40.900Z,1.90
2019-05-26T15:59:07.664Z,5.83
2019-05-26T16:01:34.345Z,8.15
2019-05-26T16:04:01.030Z,3.70
2019-05-26T16:06:28.849Z,8.38
2019-05-26T16:08:56.007Z,3.75
2019-05-26T16:11:22.710Z,3.40
2019-05-26T16:13:49.475Z,3.33
2019-05-26T16:16:16.775Z,2.92
2019-05-26T16:18:43.720Z,2.65
2019-05-26T16:21:26.705Z,3.58
2019-05-26T16:23:39.064Z,1.27
2019-05-26T16:26:05.806Z,1.72
2019-05-26T16:28:32.585Z,1.82
2019-05-26T16:30:59.507Z,1.47
2019-05-26T16:33:26.236Z,2.35
2019-05-26T16:35:55.509Z,1.35
2019-05-26T16:38:22.084Z,3.55
2019-05-26T16:40:48.912Z,2.67
2019-05-26T16:43:15.952Z,1.40
2019-05-26T16:45:55.272Z,1.32
2019-05-26T16:48:11.726Z,3.40
2019-05-26T16:50:38.711Z,1.60
2019-05-26T16:53:05.502Z,3.72
2019-05-26T16:55:32.753Z,1.87
2019-05-26T16:57:59.416Z,1.27
2019-05-26T17:00:26.512Z,3.40
2019-05-26T17:02:53.199Z,3.75
2019-05-26T17:05:19.901Z,2.90
2019-05-26T17:07:50.233Z,1.02
2019-05-26T17:10:15.319Z,2.83
2019-05-26T17:12:42.067Z,2.47
2019-05-26T17:15:09.427Z,2.65
2019-05-26T17:17:36.495Z,1.47
2019-05-26T17:20:05.489Z,1.25
2019-05-26T17:22:32.391Z,1.50
2019-05-26T17:25:00.036Z,5.20
2019-05-26T17:27:26.891Z,1.72
2019-05-26T17:29:53.628Z,1.20
2019-05-26T17:32:20.336Z,1.45
2019-05-26T17:34:47.019Z,2.15
2019-05-26T17:37:13.931Z,1.60
2019-05-26T17:39:40.719Z,8.65
2019-05-26T17:42:07.514Z,1.37
2019-05-26T17:44:34.216Z,1.57
2019-05-26T17:47:00.953Z,1.87
2019-05-26T17:49:27.681Z,1.77
2019-05-26T17:51:54.385Z,1.30
2019-05-26T17:54:21.204Z,1.80
2019-05-26T17:56:47.936Z,2.12
2019-05-26T17:59:14.634Z,1.37
2019-05-26T18:01:41.300Z,1.32
2019-05-26T18:04:08.008Z,2.90
2019-05-26T18:06:34.803Z,1.62
2019-05-26T18:09:01.908Z,2.87
2019-05-26T18:11:28.922Z,7.15
2019-05-26T18:13:55.795Z,3.03
2019-05-26T18:16:22.836Z,4.50
2019-05-26T18:18:49.511Z,1.80
2019-05-26T18:21:16.446Z,1.43
2019-05-26T18:23:43.150Z,1.40
2019-05-26T18:26:09.876Z,1.70
2019-05-26T18:28:36.815Z,2.50
2019-05-26T18:31:03.616Z,1.90
2019-05-26T18:33:30.676Z,1.27
2019-05-26T18:35:57.363Z,1.40
2019-05-26T18:38:24.363Z,1.37
2019-05-26T18:40:51.084Z,1.13
2019-05-26T18:43:17.833Z,1.20
2019-05-26T18:45:44.741Z,1.67
2019-05-26T18:48:11.571Z,1.50
2019-05-26T18:50:38.384Z,1.63
2019-05-26T18:53:05.382Z,1.43
2019-05-26T18:55:32.120Z,1.13
2019-05-26T18:57:59.452Z,1.60
2019-05-26T19:00:30.846Z,1.17
2019-05-26T19:02:54.954Z,2.83
2019-05-26T19:05:32.877Z,1.67
2019-05-26T19:07:50.717Z,3.03
2019-05-26T19:10:17.799Z,1.20
2019-05-26T19:12:44.609Z,2.07
2019-05-26T19:15:11.861Z,2.83
2019-05-26T19:17:38.625Z,1.23
2019-05-26T19:20:15.714Z,1.53
2019-05-26T19:22:34.871Z,1.47
2019-05-26T19:25:01.684Z,1.30
2019-05-26T19:27:28.432Z,2.30
2019-05-26T19:29:55.226Z,2.30
2019-05-26T19:32:21.916Z,3.57
2019-05-26T19:34:48.636Z,2.63
2019-05-26T19:37:15.317Z,2.17
2019-05-26T19:39:42.032Z,2.73
2019-05-26T19:42:08.769Z,3.83
2019-05-26T19:44:35.447Z,2.13
2019-05-26T19:47:02.500Z,2.17
2019-05-26T19:49:29.476Z,1.57
2019-05-26T19:51:56.211Z,3.43
2019-05-26T19:54:22.911Z,2.03
2019-05-26T19:56:49.866Z,1.73
2019-05-26T19:59:16.651Z,4.13
2019-05-26T20:01:43.335Z,6.10
2019-05-26T20:04:10.043Z,2.90
2019-05-26T20:06:36.812Z,2.10
2019-05-26T20:09:06.181Z,4.60
2019-05-26T20:11:33.108Z,3.27
2019-05-26T20:13:59.798Z,2.17
2019-05-26T20:16:30.514Z,3.30
2019-05-26T20:18:55.559Z,1.80
2019-05-26T20:21:22.246Z,1.73
2019-05-26T20:23:48.957Z,2.70
2019-05-26T20:26:15.991Z,5.57
2019-05-26T20:28:42.954Z,2.47
2019-05-26T20:31:09.900Z,3.03
2019-05-26T20:33:36.853Z,2.03
2019-05-26T20:36:03.949Z,1.73
2019-05-26T20:38:30.665Z,1.60
2019-05-26T20:40:57.455Z,1.90
2019-05-26T20:43:25.143Z,2.87
2019-05-26T20:45:51.982Z,3.43
2019-05-26T20:48:18.904Z,2.27
2019-05-26T20:50:45.640Z,5.13
2019-05-26T20:53:12.630Z,3.17
2019-05-26T20:55:39.550Z,2.00
2019-05-26T20:58:06.291Z,4.73
2019-05-26T21:00:32.989Z,3.83
2019-05-26T21:02:59.659Z,2.83
2019-05-26T21:05:26.379Z,2.53
2019-05-26T21:07:53.436Z,2.13
2019-05-26T21:10:20.234Z,4.70
2019-05-26T21:12:46.896Z,2.50
2019-05-26T21:15:14.041Z,2.50
2019-05-26T21:17:41.077Z,4.20
2019-05-26T21:20:08.471Z,3.03
2019-05-26T21:22:35.371Z,2.87
2019-05-26T21:25:02.464Z,1.63
2019-05-26T21:27:29.183Z,3.97
2019-05-26T21:29:55.876Z,2.60
2019-05-26T21:32:22.623Z,2.53
2019-05-26T21:34:49.314Z,3.43
2019-05-26T21:37:16.095Z,1.40
2019-05-26T21:39:42.798Z,1.60
2019-05-26T21:42:09.527Z,1.90
2019-05-26T21:44:36.323Z,2.50
2019-05-26T21:47:03.151Z,2.27
2019-05-26T21:49:29.868Z,1.27
2019-05-26T21:51:56.672Z,3.70
2019-05-26T21:54:23.713Z,1.87
2019-05-26T21:56:50.388Z,2.77
2019-05-26T21:59:17.594Z,1.73
2019-05-26T22:01:44.407Z,4.43
2019-05-26T22:04:11.226Z,2.17
2019-05-26T22:06:37.908Z,3.27
2019-05-26T22:09:06.168Z,2.97
2019-05-26T22:11:32.862Z,2.57
2019-05-26T22:13:59.742Z,1.70
2019-05-26T22:16:26.563Z,2.33
2019-05-26T22:18:53.224Z,1.60
2019-05-26T22:21:20.511Z,1.60
2019-05-26T22:23:47.261Z,1.70
2019-05-26T22:26:14.665Z,1.90
2019-05-26T22:28:41.484Z,6.27
2019-05-26T22:31:08.406Z,2.43
2019-05-26T22:33:35.115Z,3.47
2019-05-26T22:36:01.887Z,1.50
2019-05-26T22:38:28.572Z,1.77
2019-05-26T22:40:55.580Z,3.60
2019-05-26T22:43:22.267Z,1.97
2019-05-26T22:45:49.323Z,1.50
2019-05-26T22:48:16.040Z,2.03
2019-05-26T22:50:42.750Z,1.30
2019-05-26T22:53:09.457Z,1.53
2019-05-26T22:55:36.501Z,4.70
2019-05-26T22:58:03.207Z,4.10
2019-05-26T23:00:30.185Z,2.57
2019-05-26T23:02:57.251Z,1.60
2019-05-26T23:05:23.964Z,2.03
2019-05-26T23:07:50.667Z,2.10
2019-05-26T23:10:19.573Z,5.17
2019-05-26T23:12:46.396Z,1.30
2019-05-26T23:15:13.308Z,1.90
2019-05-26T23:17:40.388Z,1.73
2019-05-26T23:20:08.008Z,1.70
2019-05-26T23:22:34.685Z,1.60
2019-05-26T23:25:01.693Z,2.37
2019-05-26T23:27:28.522Z,1.50
2019-05-26T23:29:55.207Z,1.80
2019-05-26T23:32:21.893Z,2.13
2019-05-26T23:34:48.841Z,3.10
2019-05-26T23:37:15.863Z,1.53
2019-05-26T23:39:42.545Z,3.07
2019-05-26T23:42:09.242Z,1.70
2019-05-26T23:44:35.922Z,2.13
2019-05-26T23:47:03.018Z,1.50
2019-05-26T23:49:30.418Z,3.37
2019-05-26T23:51:57.132Z,1.37
2019-05-26T23:54:23.823Z,1.70
2019-05-26T23:56:50.868Z,1.77
2019-05-26T23:59:17.986Z,2.00
